sensor_id;sensor_type;location;lat;lon;timestamp;temperature;humidity
6174;DHT22;3120;48.796;9.796;2022-10-16T00:00:52;14.80;99.90
6174;DHT22;3120;48.796;9.796;2022-10-16T00:03:18;14.80;99.90
6174;DHT22;3120;48.796;9.796;2022-10-16T00:05:44;14.70;99.90
6174;DHT22;3120;48.796;9.796;2022-10-16T00:08:11;14.70;99.90
6174;DHT22;3120;48.796;9.796;2022-10-16T00:10:37;14.70;99.90
6174;DHT22;3120;48.796;9.796;2022-10-16T00:13:04;15.20;99.90
6174;DHT22;3120;48.796;9.796;2022-10-16T00:15:30;15.10;99.90
6174;DHT22;3120;48.796;9.796;2022-10-16T00:17:55;14.80;99.90
6174;DHT22;3120;48.796;9.796;2022-10-16T00:20:21;14.40;99.90
6174;DHT22;3120;48.796;9.796;2022-10-16T00:22:46;14.70;99.90
6174;DHT22;3120;48.796;9.796;2022-10-16T00:25:12;14.80;99.90
6174;DHT22;3120;48.796;9.796;2022-10-16T00:27:37;14.70;99.90
6174;DHT22;3120;48.796;9.796;2022-10-16T00:30:03;14.70;99.90
6174;DHT22;3120;48.796;9.796;2022-10-16T00:32:29;14.70;99.90
6174;DHT22;3120;48.796;9.796;2022-10-16T00:34:55;14.70;99.90
6174;DHT22;3120;48.796;9.796;2022-10-16T00:37:21;14.70;99.90
6174;DHT22;3120;48.796;9.796;2022-10-16T00:39:46;15.00;99.90
6174;DHT22;3120;48.796;9.796;2022-10-16T00:42:18;14.80;99.90
6174;DHT22;3120;48.796;9.796;2022-10-16T00:44:51;14.70;99.90
6174;DHT22;3120;48.796;9.796;2022-10-16T00:47:21;14.70;99.90
6174;DHT22;3120;48.796;9.796;2022-10-16T00:49:50;14.70;99.90
6174;DHT22;3120;48.796;9.796;2022-10-16T00:52:17;14.70;99.90
6174;DHT22;3120;48.796;9.796;2022-10-16T00:54:43;15.00;99.90
6174;DHT22;3120;48.796;9.796;2022-10-16T00:57:09;14.70;99.90
6174;DHT22;3120;48.796;9.796;2022-10-16T00:59:39;14.70;99.90
6174;DHT22;3120;48.796;9.796;2022-10-16T01:02:10;14.90;99.90
6174;DHT22;3120;48.796;9.796;2022-10-16T01:04:45;15.10;99.90
6174;DHT22;3120;48.796;9.796;2022-10-16T01:13:10;14.50;99.90
6174;DHT22;3120;48.796;9.796;2022-10-16T01:15:56;14.50;99.90
6174;DHT22;3120;48.796;9.796;2022-10-16T01:18:38;14.40;99.90
6174;DHT22;3120;48.796;9.796;2022-10-16T01:21:07;14.40;99.90
6174;DHT22;3120;48.796;9.796;2022-10-16T01:23:57;14.40;99.90
6174;DHT22;3120;48.796;9.796;2022-10-16T01:29:41;14.30;99.90
6174;DHT22;3120;48.796;9.796;2022-10-16T01:32:20;14.30;99.90
6174;DHT22;3120;48.796;9.796;2022-10-16T01:34:53;14.20;99.90
6174;DHT22;3120;48.796;9.796;2022-10-16T01:37:40;14.30;99.90
6174;DHT22;3120;48.796;9.796;2022-10-16T01:40:12;14.40;99.90
6174;DHT22;3120;48.796;9.796;2022-10-16T01:42:44;14.20;99.90
6174;DHT22;3120;48.796;9.796;2022-10-16T01:45:13;14.80;99.90
6174;DHT22;3120;48.796;9.796;2022-10-16T01:47:40;14.10;99.90
6174;DHT22;3120;48.796;9.796;2022-10-16T01:50:08;14.20;99.90
6174;DHT22;3120;48.796;9.796;2022-10-16T01:52:36;14.10;99.90
6174;DHT22;3120;48.796;9.796;2022-10-16T01:55:05;14.00;99.90
6174;DHT22;3120;48.796;9.796;2022-10-16T01:57:34;14.10;99.90
6174;DHT22;3120;48.796;9.796;2022-10-16T02:00:07;14.00;99.90
6174;DHT22;3120;48.796;9.796;2022-10-16T02:02:34;14.00;99.90
6174;DHT22;3120;48.796;9.796;2022-10-16T02:05:15;14.20;99.90
6174;DHT22;3120;48.796;9.796;2022-10-16T02:07:43;14.10;99.90
6174;DHT22;3120;48.796;9.796;2022-10-16T02:10:09;13.90;99.90
6174;DHT22;3120;48.796;9.796;2022-10-16T02:12:38;14.00;99.90
6174;DHT22;3120;48.796;9.796;2022-10-16T02:15:06;14.00;99.90
6174;DHT22;3120;48.796;9.796;2022-10-16T02:17:32;14.00;99.90
6174;DHT22;3120;48.796;9.796;2022-10-16T02:19:58;14.00;99.90
6174;DHT22;3120;48.796;9.796;2022-10-16T02:22:32;14.40;99.90
6174;DHT22;3120;48.796;9.796;2022-10-16T02:24:58;14.00;99.90
6174;DHT22;3120;48.796;9.796;2022-10-16T02:30:09;14.00;99.90
6174;DHT22;3120;48.796;9.796;2022-10-16T02:32:39;14.00;99.90
6174;DHT22;3120;48.796;9.796;2022-10-16T02:35:08;14.00;99.90
6174;DHT22;3120;48.796;9.796;2022-10-16T02:37:35;13.90;99.90
6174;DHT22;3120;48.796;9.796;2022-10-16T02:40:01;14.80;99.90
6174;DHT22;3120;48.796;9.796;2022-10-16T02:42:36;14.00;99.90
6174;DHT22;3120;48.796;9.796;2022-10-16T02:45:02;14.00;99.90
6174;DHT22;3120;48.796;9.796;2022-10-16T02:47:28;14.00;99.90
6174;DHT22;3120;48.796;9.796;2022-10-16T02:49:54;14.10;99.90
6174;DHT22;3120;48.796;9.796;2022-10-16T02:52:20;14.30;99.90
6174;DHT22;3120;48.796;9.796;2022-10-16T02:54:45;14.00;99.90
6174;DHT22;3120;48.796;9.796;2022-10-16T02:57:11;14.10;99.90
6174;DHT22;3120;48.796;9.796;2022-10-16T02:59:37;14.60;99.90
6174;DHT22;3120;48.796;9.796;2022-10-16T03:02:03;14.00;99.90
6174;DHT22;3120;48.796;9.796;2022-10-16T03:04:28;14.70;99.90
6174;DHT22;3120;48.796;9.796;2022-10-16T03:06:54;14.10;99.90
6174;DHT22;3120;48.796;9.796;2022-10-16T03:09:19;14.10;99.90
6174;DHT22;3120;48.796;9.796;2022-10-16T03:14:14;14.00;99.90
6174;DHT22;3120;48.796;9.796;2022-10-16T03:16:40;14.60;99.90
6174;DHT22;3120;48.796;9.796;2022-10-16T03:19:05;15.10;99.90
6174;DHT22;3120;48.796;9.796;2022-10-16T03:21:31;14.00;99.90
6174;DHT22;3120;48.796;9.796;2022-10-16T03:23:57;15.80;99.90
6174;DHT22;3120;48.796;9.796;2022-10-16T03:26:22;14.00;99.90
6174;DHT22;3120;48.796;9.796;2022-10-16T03:28:48;14.10;99.90
6174;DHT22;3120;48.796;9.796;2022-10-16T03:31:13;14.10;99.90
6174;DHT22;3120;48.796;9.796;2022-10-16T03:33:39;14.00;99.90
6174;DHT22;3120;48.796;9.796;2022-10-16T03:36:04;14.00;99.90
6174;DHT22;3120;48.796;9.796;2022-10-16T03:38:30;14.00;99.90
6174;DHT22;3120;48.796;9.796;2022-10-16T03:40:55;14.00;99.90
6174;DHT22;3120;48.796;9.796;2022-10-16T03:43:21;14.00;99.90
6174;DHT22;3120;48.796;9.796;2022-10-16T03:45:46;16.20;99.90
6174;DHT22;3120;48.796;9.796;2022-10-16T03:48:12;14.00;99.90
6174;DHT22;3120;48.796;9.796;2022-10-16T03:50:38;14.00;99.90
6174;DHT22;3120;48.796;9.796;2022-10-16T03:53:04;14.00;99.90
6174;DHT22;3120;48.796;9.796;2022-10-16T03:55:29;14.80;99.90
6174;DHT22;3120;48.796;9.796;2022-10-16T03:57:55;15.30;99.90
6174;DHT22;3120;48.796;9.796;2022-10-16T04:00:20;14.10;99.90
6174;DHT22;3120;48.796;9.796;2022-10-16T04:02:46;14.00;99.90
6174;DHT22;3120;48.796;9.796;2022-10-16T04:05:11;14.70;99.90
6174;DHT22;3120;48.796;9.796;2022-10-16T04:07:37;13.90;99.90
6174;DHT22;3120;48.796;9.796;2022-10-16T04:10:04;13.90;99.90
6174;DHT22;3120;48.796;9.796;2022-10-16T04:13:02;13.90;99.90
6174;DHT22;3120;48.796;9.796;2022-10-16T04:15:28;13.80;99.90
6174;DHT22;3120;48.796;9.796;2022-10-16T04:17:54;13.80;99.90
6174;DHT22;3120;48.796;9.796;2022-10-16T04:20:19;13.70;99.90
6174;DHT22;3120;48.796;9.796;2022-10-16T04:22:45;13.70;99.90
6174;DHT22;3120;48.796;9.796;2022-10-16T04:25:11;15.60;99.90
6174;DHT22;3120;48.796;9.796;2022-10-16T04:27:37;13.80;99.90
6174;DHT22;3120;48.796;9.796;2022-10-16T04:30:03;14.00;99.90
6174;DHT22;3120;48.796;9.796;2022-10-16T04:32:29;13.70;99.90
6174;DHT22;3120;48.796;9.796;2022-10-16T04:34:55;13.70;99.90
6174;DHT22;3120;48.796;9.796;2022-10-16T04:37:24;13.70;99.90
6174;DHT22;3120;48.796;9.796;2022-10-16T04:39:50;13.70;99.90
6174;DHT22;3120;48.796;9.796;2022-10-16T04:42:16;13.70;99.90
6174;DHT22;3120;48.796;9.796;2022-10-16T04:44:41;15.80;99.90
6174;DHT22;3120;48.796;9.796;2022-10-16T04:47:07;13.70;99.90
6174;DHT22;3120;48.796;9.796;2022-10-16T04:49:33;13.70;99.90
6174;DHT22;3120;48.796;9.796;2022-10-16T04:51:58;13.70;99.90
6174;DHT22;3120;48.796;9.796;2022-10-16T04:54:24;15.20;99.90
6174;DHT22;3120;48.796;9.796;2022-10-16T04:56:49;14.40;99.90
6174;DHT22;3120;48.796;9.796;2022-10-16T04:59:16;13.80;99.90
6174;DHT22;3120;48.796;9.796;2022-10-16T05:01:42;13.80;99.90
6174;DHT22;3120;48.796;9.796;2022-10-16T05:04:08;13.80;99.90
6174;DHT22;3120;48.796;9.796;2022-10-16T05:06:34;15.80;99.90
6174;DHT22;3120;48.796;9.796;2022-10-16T05:09:00;13.80;99.90
6174;DHT22;3120;48.796;9.796;2022-10-16T05:11:25;13.80;99.90
6174;DHT22;3120;48.796;9.796;2022-10-16T05:13:51;14.30;99.90
6174;DHT22;3120;48.796;9.796;2022-10-16T05:16:16;15.40;99.90
6174;DHT22;3120;48.796;9.796;2022-10-16T05:18:42;14.30;99.90
6174;DHT22;3120;48.796;9.796;2022-10-16T05:21:08;15.00;99.90
6174;DHT22;3120;48.796;9.796;2022-10-16T05:23:33;14.30;99.90
6174;DHT22;3120;48.796;9.796;2022-10-16T05:26:00;13.80;99.90
6174;DHT22;3120;48.796;9.796;2022-10-16T05:28:27;14.60;99.90
6174;DHT22;3120;48.796;9.796;2022-10-16T05:30:53;13.70;99.90
6174;DHT22;3120;48.796;9.796;2022-10-16T05:33:23;14.60;99.90
6174;DHT22;3120;48.796;9.796;2022-10-16T05:35:49;15.40;99.90
6174;DHT22;3120;48.796;9.796;2022-10-16T05:38:18;15.60;99.90
6174;DHT22;3120;48.796;9.796;2022-10-16T05:40:50;13.70;99.90
6174;DHT22;3120;48.796;9.796;2022-10-16T05:43:15;13.70;99.90
6174;DHT22;3120;48.796;9.796;2022-10-16T05:45:41;13.80;99.90
6174;DHT22;3120;48.796;9.796;2022-10-16T05:48:07;13.80;99.90
6174;DHT22;3120;48.796;9.796;2022-10-16T05:50:32;15.10;99.90
6174;DHT22;3120;48.796;9.796;2022-10-16T05:52:58;13.80;99.90
6174;DHT22;3120;48.796;9.796;2022-10-16T05:55:24;13.80;99.90
6174;DHT22;3120;48.796;9.796;2022-10-16T05:57:49;14.50;99.90
6174;DHT22;3120;48.796;9.796;2022-10-16T06:00:26;13.80;99.90
6174;DHT22;3120;48.796;9.796;2022-10-16T06:02:51;13.90;99.90
6174;DHT22;3120;48.796;9.796;2022-10-16T06:05:28;14.60;99.90
6174;DHT22;3120;48.796;9.796;2022-10-16T06:07:54;13.90;99.90
6174;DHT22;3120;48.796;9.796;2022-10-16T06:10:19;13.90;99.90
6174;DHT22;3120;48.796;9.796;2022-10-16T06:12:50;15.10;99.90
6174;DHT22;3120;48.796;9.796;2022-10-16T06:15:15;14.60;99.90
6174;DHT22;3120;48.796;9.796;2022-10-16T06:17:50;15.70;99.90
6174;DHT22;3120;48.796;9.796;2022-10-16T06:20:21;13.90;99.90
6174;DHT22;3120;48.796;9.796;2022-10-16T06:26:11;14.00;99.90
6174;DHT22;3120;48.796;9.796;2022-10-16T06:28:44;14.80;99.90
6174;DHT22;3120;48.796;9.796;2022-10-16T06:31:45;14.00;99.90
6174;DHT22;3120;48.796;9.796;2022-10-16T06:34:10;14.10;99.90
6174;DHT22;3120;48.796;9.796;2022-10-16T06:36:39;14.10;99.90
6174;DHT22;3120;48.796;9.796;2022-10-16T06:39:05;15.70;99.90
6174;DHT22;3120;48.796;9.796;2022-10-16T06:41:32;15.20;99.90
6174;DHT22;3120;48.796;9.796;2022-10-16T06:43:58;14.50;99.90
6174;DHT22;3120;48.796;9.796;2022-10-16T06:46:25;15.30;99.90
6174;DHT22;3120;48.796;9.796;2022-10-16T06:48:53;16.60;99.90
6174;DHT22;3120;48.796;9.796;2022-10-16T06:51:24;15.00;99.90
6174;DHT22;3120;48.796;9.796;2022-10-16T06:53:52;14.50;99.90
6174;DHT22;3120;48.796;9.796;2022-10-16T06:56:22;15.00;99.90
6174;DHT22;3120;48.796;9.796;2022-10-16T06:58:49;14.60;99.90
6174;DHT22;3120;48.796;9.796;2022-10-16T07:01:16;16.10;99.90
6174;DHT22;3120;48.796;9.796;2022-10-16T07:03:43;16.50;99.90
6174;DHT22;3120;48.796;9.796;2022-10-16T07:06:11;16.10;99.90
6174;DHT22;3120;48.796;9.796;2022-10-16T07:13:43;14.90;99.90
6174;DHT22;3120;48.796;9.796;2022-10-16T07:16:14;14.90;99.90
6174;DHT22;3120;48.796;9.796;2022-10-16T07:18:40;15.80;99.90
6174;DHT22;3120;48.796;9.796;2022-10-16T07:21:10;16.00;99.90
6174;DHT22;3120;48.796;9.796;2022-10-16T07:23:37;15.30;99.90
6174;DHT22;3120;48.796;9.796;2022-10-16T07:26:03;15.60;99.90
6174;DHT22;3120;48.796;9.796;2022-10-16T07:28:32;15.50;99.90
6174;DHT22;3120;48.796;9.796;2022-10-16T07:31:03;15.60;99.90
6174;DHT22;3120;48.796;9.796;2022-10-16T07:33:30;14.80;99.90
6174;DHT22;3120;48.796;9.796;2022-10-16T07:35:56;18.40;99.90
6174;DHT22;3120;48.796;9.796;2022-10-16T07:38:22;17.30;99.90
6174;DHT22;3120;48.796;9.796;2022-10-16T07:41:02;17.10;99.90
6174;DHT22;3120;48.796;9.796;2022-10-16T07:43:28;16.10;99.90
6174;DHT22;3120;48.796;9.796;2022-10-16T07:45:55;16.10;99.90
6174;DHT22;3120;48.796;9.796;2022-10-16T07:48:22;16.90;99.90
6174;DHT22;3120;48.796;9.796;2022-10-16T07:50:59;16.40;99.90
6174;DHT22;3120;48.796;9.796;2022-10-16T07:53:25;17.50;99.90
6174;DHT22;3120;48.796;9.796;2022-10-16T07:55:51;16.70;99.90
6174;DHT22;3120;48.796;9.796;2022-10-16T07:58:17;16.80;99.90
6174;DHT22;3120;48.796;9.796;2022-10-16T08:00:43;16.20;99.90
6174;DHT22;3120;48.796;9.796;2022-10-16T08:03:18;16.40;99.90
6174;DHT22;3120;48.796;9.796;2022-10-16T08:05:43;18.20;99.90
6174;DHT22;3120;48.796;9.796;2022-10-16T08:08:13;16.60;99.90
6174;DHT22;3120;48.796;9.796;2022-10-16T08:10:39;16.60;99.90
6174;DHT22;3120;48.796;9.796;2022-10-16T08:13:04;16.70;99.90
6174;DHT22;3120;48.796;9.796;2022-10-16T08:15:33;16.70;99.90
6174;DHT22;3120;48.796;9.796;2022-10-16T08:18:13;17.80;99.90
6174;DHT22;3120;48.796;9.796;2022-10-16T08:20:42;16.70;99.90
6174;DHT22;3120;48.796;9.796;2022-10-16T08:23:11;16.70;99.90
6174;DHT22;3120;48.796;9.796;2022-10-16T08:25:37;16.70;99.90
6174;DHT22;3120;48.796;9.796;2022-10-16T08:28:06;17.00;99.90
6174;DHT22;3120;48.796;9.796;2022-10-16T08:30:33;16.80;99.90
6174;DHT22;3120;48.796;9.796;2022-10-16T08:32:59;18.90;99.90
6174;DHT22;3120;48.796;9.796;2022-10-16T08:35:25;17.40;99.90
6174;DHT22;3120;48.796;9.796;2022-10-16T08:37:50;16.80;99.90
6174;DHT22;3120;48.796;9.796;2022-10-16T08:40:22;16.90;99.90
6174;DHT22;3120;48.796;9.796;2022-10-16T08:43:21;16.90;99.90
6174;DHT22;3120;48.796;9.796;2022-10-16T08:49:13;17.10;99.90
6174;DHT22;3120;48.796;9.796;2022-10-16T08:51:40;17.20;99.90
6174;DHT22;3120;48.796;9.796;2022-10-16T08:56:44;17.40;99.90
6174;DHT22;3120;48.796;9.796;2022-10-16T08:59:10;17.50;99.90
6174;DHT22;3120;48.796;9.796;2022-10-16T09:01:44;17.60;99.90
6174;DHT22;3120;48.796;9.796;2022-10-16T09:07:28;17.80;99.90
6174;DHT22;3120;48.796;9.796;2022-10-16T09:15:39;18.30;99.90
6174;DHT22;3120;48.796;9.796;2022-10-16T09:21:43;18.40;99.90
6174;DHT22;3120;48.796;9.796;2022-10-16T09:24:26;18.40;99.90
6174;DHT22;3120;48.796;9.796;2022-10-16T09:26:59;18.40;99.90
6174;DHT22;3120;48.796;9.796;2022-10-16T09:39:53;18.30;99.90
6174;DHT22;3120;48.796;9.796;2022-10-16T09:42:39;18.20;99.90
6174;DHT22;3120;48.796;9.796;2022-10-16T09:45:21;18.30;99.90
6174;DHT22;3120;48.796;9.796;2022-10-16T09:47:51;18.40;99.90
6174;DHT22;3120;48.796;9.796;2022-10-16T09:50:28;19.20;99.90
6174;DHT22;3120;48.796;9.796;2022-10-16T09:53:16;18.60;99.90
6174;DHT22;3120;48.796;9.796;2022-10-16T10:00:04;18.90;99.90
6174;DHT22;3120;48.796;9.796;2022-10-16T10:02:59;18.90;99.90
6174;DHT22;3120;48.796;9.796;2022-10-16T10:05:29;20.30;99.90
6174;DHT22;3120;48.796;9.796;2022-10-16T10:08:03;19.40;99.90
6174;DHT22;3120;48.796;9.796;2022-10-16T10:10:55;19.50;99.90
6174;DHT22;3120;48.796;9.796;2022-10-16T10:13:38;19.70;99.90
6174;DHT22;3120;48.796;9.796;2022-10-16T10:16:26;19.90;99.90
6174;DHT22;3120;48.796;9.796;2022-10-16T10:19:00;20.10;99.90
6174;DHT22;3120;48.796;9.796;2022-10-16T10:21:25;20.00;99.90
6174;DHT22;3120;48.796;9.796;2022-10-16T10:23:57;20.00;99.90
6174;DHT22;3120;48.796;9.796;2022-10-16T10:26:27;20.60;99.90
6174;DHT22;3120;48.796;9.796;2022-10-16T10:29:13;20.50;99.90
6174;DHT22;3120;48.796;9.796;2022-10-16T10:32:02;20.30;99.90
6174;DHT22;3120;48.796;9.796;2022-10-16T10:40:15;20.40;81.70
6174;DHT22;3120;48.796;9.796;2022-10-16T10:45:45;21.00;1.00
6174;DHT22;3120;48.796;9.796;2022-10-16T10:52:10;21.20;1.00
6174;DHT22;3120;48.796;9.796;2022-10-16T10:54:57;21.30;1.00
6174;DHT22;3120;48.796;9.796;2022-10-16T11:05:46;22.30;99.90
6174;DHT22;3120;48.796;9.796;2022-10-16T11:08:45;22.40;1.00
6174;DHT22;3120;48.796;9.796;2022-10-16T11:11:29;22.30;14.40
6174;DHT22;3120;48.796;9.796;2022-10-16T11:16:52;22.30;99.90
6174;DHT22;3120;48.796;9.796;2022-10-16T11:21:54;22.20;99.90
6174;DHT22;3120;48.796;9.796;2022-10-16T11:24:27;22.10;99.90
6174;DHT22;3120;48.796;9.796;2022-10-16T11:26:56;22.10;99.90
6174;DHT22;3120;48.796;9.796;2022-10-16T11:29:29;22.10;1.00
6174;DHT22;3120;48.796;9.796;2022-10-16T11:32:06;22.20;1.00
6174;DHT22;3120;48.796;9.796;2022-10-16T11:34:49;22.10;99.90
6174;DHT22;3120;48.796;9.796;2022-10-16T11:37:26;22.10;99.90
6174;DHT22;3120;48.796;9.796;2022-10-16T11:39:58;22.20;1.00
6174;DHT22;3120;48.796;9.796;2022-10-16T11:42:48;22.40;91.20
6174;DHT22;3120;48.796;9.796;2022-10-16T11:45:38;22.40;1.00
6174;DHT22;3120;48.796;9.796;2022-10-16T11:50:53;22.20;1.00
6174;DHT22;3120;48.796;9.796;2022-10-16T11:53:55;22.30;99.90
6174;DHT22;3120;48.796;9.796;2022-10-16T11:56:24;22.30;99.90
6174;DHT22;3120;48.796;9.796;2022-10-16T12:04:53;22.30;1.00
6174;DHT22;3120;48.796;9.796;2022-10-16T12:07:18;22.40;99.90
6174;DHT22;3120;48.796;9.796;2022-10-16T12:09:45;22.50;1.00
6174;DHT22;3120;48.796;9.796;2022-10-16T12:17:41;22.60;13.80
6174;DHT22;3120;48.796;9.796;2022-10-16T12:22:48;22.70;86.60
6174;DHT22;3120;48.796;9.796;2022-10-16T12:30:26;22.50;99.90
6174;DHT22;3120;48.796;9.796;2022-10-16T12:32:58;22.00;1.00
6174;DHT22;3120;48.796;9.796;2022-10-16T12:35:27;22.50;1.00
6174;DHT22;3120;48.796;9.796;2022-10-16T12:37:54;22.40;1.00
6174;DHT22;3120;48.796;9.796;2022-10-16T12:40:32;22.40;99.90
6174;DHT22;3120;48.796;9.796;2022-10-16T12:42:58;22.40;1.00
6174;DHT22;3120;48.796;9.796;2022-10-16T12:47:55;22.50;1.00
6174;DHT22;3120;48.796;9.796;2022-10-16T12:50:38;22.40;1.00
6174;DHT22;3120;48.796;9.796;2022-10-16T12:53:24;22.50;1.00
6174;DHT22;3120;48.796;9.796;2022-10-16T12:56:19;22.50;99.90
6174;DHT22;3120;48.796;9.796;2022-10-16T12:59:01;22.50;99.90
6174;DHT22;3120;48.796;9.796;2022-10-16T13:16:12;22.70;99.90
6174;DHT22;3120;48.796;9.796;2022-10-16T13:19:12;22.80;99.90
6174;DHT22;3120;48.796;9.796;2022-10-16T13:22:08;22.90;99.90
6174;DHT22;3120;48.796;9.796;2022-10-16T13:27:27;23.10;99.90
6174;DHT22;3120;48.796;9.796;2022-10-16T13:30:15;22.90;99.90
6174;DHT22;3120;48.796;9.796;2022-10-16T13:32:46;22.90;99.90
6174;DHT22;3120;48.796;9.796;2022-10-16T13:35:31;22.70;99.90
6174;DHT22;3120;48.796;9.796;2022-10-16T13:38:15;22.80;99.90
6174;DHT22;3120;48.796;9.796;2022-10-16T13:40:49;22.70;99.90
6174;DHT22;3120;48.796;9.796;2022-10-16T13:43:17;22.80;99.90
6174;DHT22;3120;48.796;9.796;2022-10-16T13:45:53;22.80;99.90
6174;DHT22;3120;48.796;9.796;2022-10-16T13:48:19;22.80;1.00
6174;DHT22;3120;48.796;9.796;2022-10-16T13:50:44;22.90;1.00
6174;DHT22;3120;48.796;9.796;2022-10-16T13:53:13;22.90;1.00
6174;DHT22;3120;48.796;9.796;2022-10-16T13:55:39;23.00;99.90
6174;DHT22;3120;48.796;9.796;2022-10-16T13:58:12;23.00;99.90
6174;DHT22;3120;48.796;9.796;2022-10-16T14:00:42;23.00;1.00
6174;DHT22;3120;48.796;9.796;2022-10-16T14:03:21;23.10;99.90
6174;DHT22;3120;48.796;9.796;2022-10-16T14:05:49;23.10;99.90
6174;DHT22;3120;48.796;9.796;2022-10-16T14:08:16;23.10;99.90
6174;DHT22;3120;48.796;9.796;2022-10-16T14:10:42;23.10;99.90
6174;DHT22;3120;48.796;9.796;2022-10-16T14:13:14;23.10;99.90
6174;DHT22;3120;48.796;9.796;2022-10-16T14:15:49;22.90;99.90
6174;DHT22;3120;48.796;9.796;2022-10-16T14:18:21;22.70;99.90
6174;DHT22;3120;48.796;9.796;2022-10-16T14:20:48;22.70;99.90
6174;DHT22;3120;48.796;9.796;2022-10-16T14:23:36;22.70;99.90
6174;DHT22;3120;48.796;9.796;2022-10-16T14:28:35;22.40;99.90
6174;DHT22;3120;48.796;9.796;2022-10-16T14:31:16;22.40;99.90
6174;DHT22;3120;48.796;9.796;2022-10-16T14:33:46;22.40;99.90
6174;DHT22;3120;48.796;9.796;2022-10-16T14:36:13;22.40;1.00
6174;DHT22;3120;48.796;9.796;2022-10-16T14:38:43;22.40;1.00
6174;DHT22;3120;48.796;9.796;2022-10-16T14:41:13;22.40;99.90
6174;DHT22;3120;48.796;9.796;2022-10-16T14:43:41;22.40;99.90
6174;DHT22;3120;48.796;9.796;2022-10-16T14:46:19;22.30;1.00
6174;DHT22;3120;48.796;9.796;2022-10-16T14:48:50;22.10;1.00
6174;DHT22;3120;48.796;9.796;2022-10-16T14:51:20;22.10;1.00
6174;DHT22;3120;48.796;9.796;2022-10-16T14:53:50;22.10;1.00
6174;DHT22;3120;48.796;9.796;2022-10-16T14:56:21;22.10;23.30
6174;DHT22;3120;48.796;9.796;2022-10-16T14:58:49;22.20;1.00
6174;DHT22;3120;48.796;9.796;2022-10-16T15:01:15;22.10;1.00
6174;DHT22;3120;48.796;9.796;2022-10-16T15:03:41;22.10;1.00
6174;DHT22;3120;48.796;9.796;2022-10-16T15:06:14;22.10;1.00
6174;DHT22;3120;48.796;9.796;2022-10-16T15:08:41;22.10;1.00
6174;DHT22;3120;48.796;9.796;2022-10-16T15:11:20;22.00;43.50
6174;DHT22;3120;48.796;9.796;2022-10-16T15:18:51;21.80;1.00
6174;DHT22;3120;48.796;9.796;2022-10-16T15:21:28;23.10;99.90
6174;DHT22;3120;48.796;9.796;2022-10-16T15:23:54;21.70;1.00
6174;DHT22;3120;48.796;9.796;2022-10-16T15:26:19;22.70;99.90
6174;DHT22;3120;48.796;9.796;2022-10-16T15:28:45;21.70;99.90
6174;DHT22;3120;48.796;9.796;2022-10-16T15:31:10;22.20;1.00
6174;DHT22;3120;48.796;9.796;2022-10-16T15:33:36;21.30;82.30
6174;DHT22;3120;48.796;9.796;2022-10-16T15:36:03;21.30;1.00
6174;DHT22;3120;48.796;9.796;2022-10-16T15:38:29;21.20;57.40
6174;DHT22;3120;48.796;9.796;2022-10-16T15:41:00;22.70;1.00
6174;DHT22;3120;48.796;9.796;2022-10-16T15:43:26;21.20;1.00
6174;DHT22;3120;48.796;9.796;2022-10-16T15:46:04;21.10;1.00
6174;DHT22;3120;48.796;9.796;2022-10-16T15:48:31;21.00;1.00
6174;DHT22;3120;48.796;9.796;2022-10-16T15:50:59;21.00;1.00
6174;DHT22;3120;48.796;9.796;2022-10-16T15:53:24;20.90;1.00
6174;DHT22;3120;48.796;9.796;2022-10-16T15:55:50;20.80;1.00
6174;DHT22;3120;48.796;9.796;2022-10-16T15:58:16;20.80;42.00
6174;DHT22;3120;48.796;9.796;2022-10-16T16:00:41;20.70;78.40
6174;DHT22;3120;48.796;9.796;2022-10-16T16:03:07;20.70;97.90
6174;DHT22;3120;48.796;9.796;2022-10-16T16:05:33;22.90;99.90
6174;DHT22;3120;48.796;9.796;2022-10-16T16:08:00;20.50;99.90
6174;DHT22;3120;48.796;9.796;2022-10-16T16:10:26;20.40;99.90
6174;DHT22;3120;48.796;9.796;2022-10-16T16:12:51;20.20;99.90
6174;DHT22;3120;48.796;9.796;2022-10-16T16:15:21;20.20;99.90
6174;DHT22;3120;48.796;9.796;2022-10-16T16:17:48;20.10;99.90
6174;DHT22;3120;48.796;9.796;2022-10-16T16:20:14;20.60;99.90
6174;DHT22;3120;48.796;9.796;2022-10-16T16:22:40;20.00;99.90
6174;DHT22;3120;48.796;9.796;2022-10-16T16:25:06;20.00;99.90
6174;DHT22;3120;48.796;9.796;2022-10-16T16:27:31;19.90;99.90
6174;DHT22;3120;48.796;9.796;2022-10-16T16:30:00;19.90;99.90
6174;DHT22;3120;48.796;9.796;2022-10-16T16:32:26;20.50;99.90
6174;DHT22;3120;48.796;9.796;2022-10-16T16:34:55;19.30;99.90
6174;DHT22;3120;48.796;9.796;2022-10-16T16:37:20;21.20;99.90
6174;DHT22;3120;48.796;9.796;2022-10-16T16:39:46;19.70;99.90
6174;DHT22;3120;48.796;9.796;2022-10-16T16:42:12;21.50;99.90
6174;DHT22;3120;48.796;9.796;2022-10-16T16:44:37;19.30;99.90
6174;DHT22;3120;48.796;9.796;2022-10-16T16:47:04;19.30;99.90
6174;DHT22;3120;48.796;9.796;2022-10-16T16:49:30;19.30;99.90
6174;DHT22;3120;48.796;9.796;2022-10-16T16:51:55;19.20;99.90
6174;DHT22;3120;48.796;9.796;2022-10-16T16:54:21;19.10;99.90
6174;DHT22;3120;48.796;9.796;2022-10-16T16:56:47;19.00;99.90
6174;DHT22;3120;48.796;9.796;2022-10-16T16:59:18;18.90;99.90
6174;DHT22;3120;48.796;9.796;2022-10-16T17:01:45;19.60;99.90
6174;DHT22;3120;48.796;9.796;2022-10-16T17:04:11;18.90;99.90
6174;DHT22;3120;48.796;9.796;2022-10-16T17:06:37;19.00;99.90
6174;DHT22;3120;48.796;9.796;2022-10-16T17:09:03;19.20;99.90
6174;DHT22;3120;48.796;9.796;2022-10-16T17:11:29;19.00;99.90
6174;DHT22;3120;48.796;9.796;2022-10-16T17:13:57;18.70;99.90
6174;DHT22;3120;48.796;9.796;2022-10-16T17:16:30;19.80;99.90
6174;DHT22;3120;48.796;9.796;2022-10-16T17:18:59;18.90;99.90
6174;DHT22;3120;48.796;9.796;2022-10-16T17:21:25;18.60;99.90
6174;DHT22;3120;48.796;9.796;2022-10-16T17:23:52;18.80;99.90
6174;DHT22;3120;48.796;9.796;2022-10-16T17:26:18;18.50;99.90
6174;DHT22;3120;48.796;9.796;2022-10-16T17:28:44;18.40;99.90
6174;DHT22;3120;48.796;9.796;2022-10-16T17:31:10;18.30;99.90
6174;DHT22;3120;48.796;9.796;2022-10-16T17:33:37;18.30;99.90
6174;DHT22;3120;48.796;9.796;2022-10-16T17:36:03;19.00;99.90
6174;DHT22;3120;48.796;9.796;2022-10-16T17:38:29;18.10;99.90
6174;DHT22;3120;48.796;9.796;2022-10-16T17:40:54;18.30;99.90
6174;DHT22;3120;48.796;9.796;2022-10-16T17:43:20;18.10;99.90
6174;DHT22;3120;48.796;9.796;2022-10-16T17:45:45;18.00;99.90
6174;DHT22;3120;48.796;9.796;2022-10-16T17:48:11;17.80;99.90
6174;DHT22;3120;48.796;9.796;2022-10-16T17:50:41;17.90;99.90
6174;DHT22;3120;48.796;9.796;2022-10-16T17:53:08;17.80;99.90
6174;DHT22;3120;48.796;9.796;2022-10-16T17:55:38;17.70;99.90
6174;DHT22;3120;48.796;9.796;2022-10-16T17:58:04;17.60;99.90
6174;DHT22;3120;48.796;9.796;2022-10-16T18:00:29;19.00;99.90
6174;DHT22;3120;48.796;9.796;2022-10-16T18:02:55;17.50;99.90
6174;DHT22;3120;48.796;9.796;2022-10-16T18:05:21;17.40;99.90
6174;DHT22;3120;48.796;9.796;2022-10-16T18:07:46;18.60;99.90
6174;DHT22;3120;48.796;9.796;2022-10-16T18:10:12;17.30;99.90
6174;DHT22;3120;48.796;9.796;2022-10-16T18:12:38;17.30;99.90
6174;DHT22;3120;48.796;9.796;2022-10-16T18:15:04;17.20;99.90
6174;DHT22;3120;48.796;9.796;2022-10-16T18:17:30;17.10;99.90
6174;DHT22;3120;48.796;9.796;2022-10-16T18:19:58;17.10;99.90
6174;DHT22;3120;48.796;9.796;2022-10-16T18:22:23;17.00;99.90
6174;DHT22;3120;48.796;9.796;2022-10-16T18:24:49;17.20;99.90
6174;DHT22;3120;48.796;9.796;2022-10-16T18:27:16;17.00;99.90
6174;DHT22;3120;48.796;9.796;2022-10-16T18:29:41;17.00;99.90
6174;DHT22;3120;48.796;9.796;2022-10-16T18:32:07;16.90;99.90